Time;durP1;ratioP1;P1;durP2;ratioP2;P2;SDS_P1;SDS_P2;PMS_P1;PMS_P2;Temp;Humidity;BMP_temperature;BMP_pressure;BME280_temperature;BME280_humidity;BME280_pressure;Samples;Min_cycle;Max_cycle;Signal;HPM_P1;HPM_P2
2022/05/09 06:53:44;;;;;;;;;13.75;13.50;;;;;18.78;49.57;102142.41;5091916;27;45488;-84
2022/05/09 06:56:10;;;;;;;;;15.50;11.50;;;;;18.94;49.73;102136.00;5088173;27;45786;-81
2022/05/09 06:58:36;;;;;;;;;15.25;11.50;;;;;19.20;49.65;102139.63;5084496;27;45165;-82
2022/05/09 07:01:11;;;;;;;;;11.25;8.75;;;;;19.53;49.57;102153.53;5085774;27;45449;-81
2022/05/09 07:03:37;;;;;;;;;11.75;9.75;;;;;19.84;49.15;102155.91;5084965;27;45423;-81
2022/05/09 07:06:02;;;;;;;;;11.50;11.50;;;;;20.13;49.12;102148.47;5084802;27;45979;-80
2022/05/09 07:08:32;;;;;;;;;8.50;7.75;;;;;20.47;49.34;102146.97;5087843;27;45319;-80
2022/05/09 07:10:57;;;;;;;;;11.25;8.25;;;;;20.80;49.10;102153.47;5084675;27;45699;-81
2022/05/09 07:13:22;;;;;;;;;11.75;11.75;;;;;21.09;48.89;102149.56;5086645;27;45600;-82
2022/05/09 07:15:48;;;;;;;;;8.00;8.00;;;;;21.32;48.00;102153.19;5079829;27;45668;-82
2022/05/09 07:18:13;;;;;;;;;6.50;6.50;;;;;21.56;47.70;102153.13;5088483;27;52467;-80
2022/05/09 07:20:39;;;;;;;;;11.00;8.50;;;;;21.78;47.90;102151.41;5084886;27;45334;-84
2022/05/09 07:23:08;;;;;;;;;10.50;7.25;;;;;21.98;47.09;102149.84;5087731;27;49189;-82
2022/05/09 07:25:34;;;;;;;;;9.00;8.00;;;;;22.18;47.14;102154.59;5092031;27;45493;-82
2022/05/09 07:28:00;;;;;;;;;12.33;9.00;;;;;22.34;47.01;102162.31;5087848;27;45462;-82
2022/05/09 07:30:25;;;;;;;;;7.00;7.00;;;;;22.49;46.36;102165.59;5088810;27;45454;-83
2022/05/09 07:32:52;;;;;;;;;6.00;6.00;;;;;22.63;46.23;102164.47;5084568;27;46361;-84
2022/05/09 07:35:19;;;;;;;;;9.00;7.00;;;;;22.74;45.90;102156.34;5085159;27;45813;-82
2022/05/09 07:37:46;;;;;;;;;8.67;6.00;;;;;22.88;46.29;102160.56;5088456;27;45487;-82
2022/05/09 07:40:12;;;;;;;;;9.67;7.00;;;;;22.97;45.92;102158.91;5086316;27;45708;-82
2022/05/09 07:42:40;;;;;;;;;11.00;9.00;;;;;23.09;45.86;102162.44;5088472;27;46037;-84
2022/05/09 07:45:07;;;;;;;;;8.00;6.33;;;;;23.19;45.91;102157.09;5091052;27;45521;-85
2022/05/09 07:47:32;;;;;;;;;6.67;6.67;;;;;23.28;45.78;102158.16;5086943;27;45591;-85
2022/05/09 07:49:57;;;;;;;;;7.00;7.00;;;;;23.37;45.52;102159.22;5086601;27;45502;-85
2022/05/09 07:52:23;;;;;;;;;7.67;6.67;;;;;23.45;45.51;102166.72;5088306;27;53129;-85
2022/05/09 07:54:49;;;;;;;;;9.00;7.00;;;;;23.52;45.39;102162.44;5081570;27;45533;-81
2022/05/09 07:57:15;;;;;;;;;8.33;6.33;;;;;23.58;45.22;102164.63;5088126;27;45494;-80
2022/05/09 07:59:41;;;;;;;;;8.67;8.67;;;;;23.65;45.40;102156.81;5086895;27;45375;-83
2022/05/09 08:02:06;;;;;;;;;8.00;6.67;;;;;23.73;45.49;102150.72;5086921;27;46123;-83
2022/05/09 08:04:32;;;;;;;;;7.67;6.00;;;;;23.78;45.27;102154.75;5072393;27;45471;-86
2022/05/09 08:06:58;;;;;;;;;7.33;7.33;;;;;23.83;45.25;102148.91;5075191;27;45616;-83
2022/05/09 08:09:23;;;;;;;;;10.33;6.00;;;;;23.88;45.19;102152.06;5071324;27;49082;-82
2022/05/09 08:11:48;;;;;;;;;5.67;5.67;;;;;23.92;45.20;102153.50;5073442;28;62512;-83
2022/05/09 08:14:14;;;;;;;;;8.33;6.67;;;;;23.99;45.24;102152.97;5074013;28;45437;-83
2022/05/09 08:16:40;;;;;;;;;7.00;7.00;;;;;24.03;45.44;102160.69;5074484;27;45395;-83
2022/05/09 08:19:05;;;;;;;;;10.67;9.00;;;;;24.07;44.96;102153.97;5071725;28;45545;-84
2022/05/09 08:21:31;;;;;;;;;7.33;6.00;;;;;24.11;45.19;102154.59;5072685;27;45951;-82
2022/05/09 08:23:57;;;;;;;;;6.67;6.67;;;;;24.15;44.98;102161.47;5076199;27;45604;-88
2022/05/09 08:26:23;;;;;;;;;7.67;6.33;;;;;24.19;44.95;102156.59;5072824;28;45613;-87
2022/05/09 08:28:56;;;;;;;;;8.33;8.33;;;;;24.20;43.24;102156.47;5073344;27;45540;-89
2022/05/09 08:31:22;;;;;;;;;9.67;8.67;;;;;24.19;42.69;102149.34;5071515;27;45548;-89
2022/05/09 08:33:50;;;;;;;;;10.00;8.00;;;;;24.19;42.64;102153.88;5074776;27;45469;-89
2022/05/09 08:36:45;;;;;;;;;10.00;10.00;;;;;24.19;42.39;102159.31;5074338;28;45511;-88
2022/05/09 08:39:04;;;;;;;;;16.00;13.67;;;;;24.16;42.15;102163.16;5071586;27;45568;-89
2022/05/09 08:41:51;;;;;;;;;13.33;13.33;;;;;24.16;41.87;102160.44;5071857;27;46510;-88
2022/05/09 08:44:31;;;;;;;;;11.67;11.67;;;;;24.14;41.54;102154.31;5072975;28;45454;-89
2022/05/09 08:47:33;;;;;;;;;10.00;9.00;;;;;24.11;41.83;102153.75;5070642;27;45502;-83
2022/05/09 08:50:21;;;;;;;;;12.00;12.00;;;;;24.08;41.85;102150.25;5073090;27;45904;-82
2022/05/09 08:52:59;;;;;;;;;12.00;12.00;;;;;24.07;42.27;102156.69;5074292;28;46173;-82
2022/05/09 08:55:36;;;;;;;;;12.00;11.00;;;;;24.10;42.51;102157.47;5086003;27;45727;-83
2022/05/09 08:58:32;;;;;;;;;10.33;9.33;;;;;24.13;42.41;102152.63;5072210;28;52963;-82
2022/05/09 09:01:03;;;;;;;;;11.00;11.00;;;;;24.18;42.40;102153.06;5063625;28;46836;-83
2022/05/09 09:03:35;;;;;;;;;12.00;10.33;;;;;24.23;42.62;102149.06;5070721;28;45849;-83
2022/05/09 09:06:22;;;;;;;;;10.67;10.67;;;;;24.28;42.62;102146.78;5074649;27;45478;-83
2022/05/09 09:09:09;;;;;;;;;9.67;8.33;;;;;24.32;42.71;102149.06;5072606;27;45344;-83
2022/05/09 09:11:41;;;;;;;;;10.67;9.00;;;;;24.35;42.57;102142.50;5073117;28;45422;-85
2022/05/09 09:14:15;;;;;;;;;7.00;7.00;;;;;24.39;42.24;102143.09;5077354;27;46072;-85
2022/05/09 09:17:00;;;;;;;;;9.00;9.00;;;;;24.40;42.89;102151.09;5072326;27;45358;-84
2022/05/09 09:19:46;;;;;;;;;10.00;9.00;;;;;24.41;43.05;102149.25;5072341;28;45478;-88
2022/05/09 09:22:11;;;;;;;;;7.00;6.67;;;;;24.45;42.78;102145.25;5064112;28;45401;-89
2022/05/09 09:24:58;;;;;;;;;10.00;10.00;;;;;24.48;43.30;102140.38;5065964;27;46255;-87
2022/05/09 09:27:57;;;;;;;;;11.00;9.33;;;;;24.53;43.23;102137.28;5072865;28;45463;-83
2022/05/09 09:30:25;;;;;;;;;8.00;8.00;;;;;24.57;43.23;102135.97;5103721;27;45402;-84
2022/05/09 09:33:05;;;;;;;;;9.00;9.00;;;;;24.60;43.06;102140.25;5072695;28;45778;-79
2022/05/09 09:35:51;;;;;;;;;9.33;9.00;;;;;24.63;43.24;102137.25;5064454;28;45411;-81
2022/05/09 09:38:40;;;;;;;;;9.00;9.00;;;;;24.66;43.37;102134.25;5070170;28;45512;-84
2022/05/09 09:41:23;;;;;;;;;8.00;8.00;;;;;24.72;43.65;102124.66;5072454;27;45736;-85
2022/05/09 09:44:06;;;;;;;;;7.00;7.00;;;;;24.75;43.15;102124.41;5073059;27;45529;-83
2022/05/09 09:46:32;;;;;;;;;8.33;8.33;;;;;24.78;43.65;102129.56;5072571;27;46309;-83
2022/05/09 09:49:09;;;;;;;;;11.33;10.00;;;;;24.82;43.57;102133.69;5070814;27;45471;-82
2022/05/09 09:51:45;;;;;;;;;10.00;8.00;;;;;24.86;43.71;102134.28;5072083;27;45502;-80
2022/05/09 09:54:12;;;;;;;;;9.00;9.00;;;;;24.87;43.72;102136.00;5070094;28;45339;-77
2022/05/09 09:56:38;;;;;;;;;11.00;9.33;;;;;24.88;43.64;102135.00;5071903;28;48413;-80
2022/05/09 09:59:09;;;;;;;;;7.00;7.00;;;;;24.92;43.86;102133.72;5071482;27;45337;-81
2022/05/09 10:01:35;;;;;;;;;12.67;8.67;;;;;24.96;43.80;102126.13;5073453;27;45395;-81
2022/05/09 10:04:11;;;;;;;;;8.00;8.00;;;;;24.98;43.50;102130.41;5071679;28;45668;-81
2022/05/09 10:07:05;;;;;;;;;10.00;8.67;;;;;25.00;43.76;102124.84;5077437;27;45995;-79
2022/05/09 10:09:39;;;;;;;;;10.33;9.00;;;;;25.01;43.66;102121.09;5063172;28;45494;-81
2022/05/09 10:12:19;;;;;;;;;8.00;8.00;;;;;25.05;43.50;102127.97;5074951;28;45458;-80
2022/05/09 10:14:45;;;;;;;;;9.33;9.33;;;;;25.07;43.65;102117.81;5073755;28;45693;-83
2022/05/09 10:17:26;;;;;;;;;11.00;9.67;;;;;25.09;43.62;102113.09;5072326;27;45567;-83
2022/05/09 10:19:53;;;;;;;;;10.00;8.00;;;;;25.10;43.59;102111.25;5072675;27;45433;-82
2022/05/09 10:25:24;;;;;;;;;10.00;8.00;;;;;25.16;43.74;102102.50;5072389;28;45635;-83
2022/05/09 10:28:05;;;;;;;;;7.67;7.67;;;;;25.18;43.61;102103.19;5072231;27;45369;-83
2022/05/09 10:30:38;;;;;;;;;8.33;8.33;;;;;25.18;43.72;102096.94;5073153;27;45408;-83
2022/05/09 10:33:07;;;;;;;;;8.00;8.00;;;;;25.20;43.52;102098.50;5074194;28;45358;-83
2022/05/09 10:35:39;;;;;;;;;9.00;8.00;;;;;25.22;44.14;102098.34;5071901;27;45962;-85
2022/05/09 10:38:12;;;;;;;;;9.00;9.00;;;;;25.24;43.86;102096.31;5072181;27;47533;-83
2022/05/09 10:40:44;;;;;;;;;8.33;7.67;;;;;25.26;43.84;102095.19;5069834;27;45499;-79
2022/05/09 10:43:24;;;;;;;;;10.00;9.00;;;;;25.27;44.01;102094.16;5070219;27;45359;-80
2022/05/09 10:45:51;;;;;;;;;7.33;7.00;;;;;25.29;43.79;102087.75;5072588;27;45586;-79
2022/05/09 10:48:29;;;;;;;;;8.33;8.33;;;;;25.29;44.00;102080.44;5071810;27;45355;-83
2022/05/09 10:51:25;;;;;;;;;7.33;7.33;;;;;25.31;43.98;102081.16;5090385;27;45651;-86
2022/05/09 10:54:25;;;;;;;;;8.00;8.00;;;;;25.30;44.01;102082.13;5073218;28;45643;-80
2022/05/09 10:56:57;;;;;;;;;7.00;7.00;;;;;25.29;43.71;102088.59;5071890;28;45611;-79
2022/05/09 10:59:29;;;;;;;;;8.33;8.00;;;;;25.27;43.39;102077.03;5070698;27;50955;-79
2022/05/09 11:02:01;;;;;;;;;9.33;7.67;;;;;25.26;43.62;102078.03;5071905;27;45526;-80
2022/05/09 11:04:30;;;;;;;;;8.00;6.67;;;;;25.24;43.78;102080.03;5072464;28;45858;-80
2022/05/09 11:06:58;;;;;;;;;8.00;7.00;;;;;25.23;43.83;102076.47;5073308;27;45542;-80
2022/05/09 11:10:05;;;;;;;;;7.67;7.67;;;;;25.22;43.52;102071.19;5066204;27;46108;-80
2022/05/09 11:12:45;;;;;;;;;7.00;7.00;;;;;25.23;43.43;102067.44;5004480;28;45509;-80
2022/05/09 11:15:29;;;;;;;;;10.00;7.67;;;;;25.22;43.28;102074.72;5009905;28;45381;-81
2022/05/09 11:18:10;;;;;;;;;9.00;8.00;;;;;25.22;43.32;102068.47;5009483;28;45738;-81
2022/05/09 11:20:46;;;;;;;;;7.00;7.00;;;;;25.20;43.94;102070.47;5009294;28;45576;-81
2022/05/09 11:23:36;;;;;;;;;8.00;6.67;;;;;25.19;42.94;102066.03;5009856;28;45378;-81
2022/05/09 11:26:21;;;;;;;;;9.33;7.33;;;;;25.18;43.58;102056.19;5006134;28;45448;-81
2022/05/09 11:28:46;;;;;;;;;9.00;8.00;;;;;25.18;42.94;102054.28;4995782;28;45641;-81
2022/05/09 11:31:23;;;;;;;;;6.00;6.00;;;;;25.18;43.20;102058.91;5004492;28;45556;-83
2022/05/09 11:34:22;;;;;;;;;7.00;7.00;;;;;25.17;43.60;102055.31;4993284;28;46301;-82
2022/05/09 11:36:50;;;;;;;;;6.00;6.00;;;;;25.16;43.43;102056.31;5007061;28;45699;-82
2022/05/09 11:39:51;;;;;;;;;8.33;7.33;;;;;25.15;43.21;102051.91;5011836;28;45529;-83
2022/05/09 11:45:30;;;;;;;;;8.67;8.67;;;;;25.17;43.42;102046.31;5010670;28;52791;-80
2022/05/09 11:48:15;;;;;;;;;8.00;8.00;;;;;25.17;42.95;102049.03;5014088;28;45558;-82
2022/05/09 11:51:01;;;;;;;;;8.00;7.00;;;;;25.17;42.83;102047.16;5073603;28;45417;-82
2022/05/09 11:53:30;;;;;;;;;5.00;5.00;;;;;25.18;43.16;102048.03;5071549;27;46090;-82
2022/05/09 11:55:57;;;;;;;;;7.00;6.00;;;;;25.17;42.90;102041.72;5072906;27;45639;-83
2022/05/09 11:58:26;;;;;;;;;6.33;6.33;;;;;25.18;42.93;102039.88;5063381;28;45460;-83
2022/05/09 12:00:53;;;;;;;;;8.00;7.33;;;;;25.17;42.89;102041.72;5074038;27;45544;-82
2022/05/09 12:03:40;;;;;;;;;8.00;8.00;;;;;25.17;42.73;102036.28;5072794;27;45461;-82
2022/05/09 12:06:14;;;;;;;;;10.00;10.00;;;;;25.18;43.32;102038.00;5076496;28;45352;-82
2022/05/09 12:08:47;;;;;;;;;8.33;7.67;;;;;25.16;42.96;102037.31;5069760;28;52515;-82
2022/05/09 12:11:44;;;;;;;;;7.33;7.33;;;;;25.17;42.79;102033.56;5073538;27;45504;-82
2022/05/09 12:14:09;;;;;;;;;10.67;10.00;;;;;25.16;43.18;102031.88;5074386;27;46082;-79
2022/05/09 12:16:39;;;;;;;;;9.33;8.33;;;;;25.16;42.61;102029.16;5073399;27;45771;-82
2022/05/09 12:19:11;;;;;;;;;9.00;9.00;;;;;25.12;42.47;102020.44;5074409;27;45449;-81
2022/05/09 12:21:41;;;;;;;;;12.33;11.00;;;;;25.11;42.47;102012.44;5069984;27;45450;-81
2022/05/09 12:24:22;;;;;;;;;11.33;10.00;;;;;25.10;42.13;102017.00;5075415;27;45425;-79
2022/05/09 12:26:51;;;;;;;;;12.67;10.67;;;;;25.10;41.89;102021.59;5091818;27;45961;-80
2022/05/09 12:29:17;;;;;;;;;13.00;12.67;;;;;25.08;41.81;102016.31;5070802;27;45434;-79
2022/05/09 12:31:49;;;;;;;;;15.67;11.33;;;;;25.07;41.65;102011.91;5064421;28;45502;-81
2022/05/09 12:34:22;;;;;;;;;14.00;12.00;;;;;25.06;41.83;102003.88;5071375;27;45798;-82
2022/05/09 12:36:47;;;;;;;;;13.00;11.33;;;;;25.08;41.93;102004.59;5080374;27;45507;-79
2022/05/09 12:39:18;;;;;;;;;13.00;11.67;;;;;25.10;41.80;102003.44;5073776;27;45388;-80
2022/05/09 12:41:48;;;;;;;;;12.00;12.00;;;;;25.12;41.58;101995.13;5073037;27;45435;-80
2022/05/09 12:44:18;;;;;;;;;12.00;12.00;;;;;25.15;41.73;101994.84;5073210;27;45814;-80
2022/05/09 12:46:51;;;;;;;;;12.00;11.00;;;;;25.16;41.54;101990.25;5087494;27;45550;-80
2022/05/09 12:49:21;;;;;;;;;16.00;13.00;;;;;25.19;41.82;101987.25;5073395;28;45440;-79
2022/05/09 12:51:50;;;;;;;;;17.00;15.00;;;;;25.20;41.52;101981.66;5074998;27;45358;-82
2022/05/09 12:54:21;;;;;;;;;13.00;12.33;;;;;25.22;41.84;101981.53;5073606;27;45611;-82
2022/05/09 12:56:52;;;;;;;;;15.00;14.67;;;;;25.22;41.66;101976.09;5076259;27;45512;-82
2022/05/09 12:59:19;;;;;;;;;12.00;12.00;;;;;25.25;41.57;101973.91;5086618;27;45587;-83
2022/05/09 13:01:54;;;;;;;;;14.00;11.33;;;;;25.27;41.61;101969.19;5069635;27;45688;-87
2022/05/09 13:04:26;;;;;;;;;11.33;11.33;;;;;25.26;41.55;101967.47;5069676;27;45545;-82
2022/05/09 13:06:55;;;;;;;;;12.00;12.00;;;;;25.24;41.55;101964.06;5074948;27;45464;-82
2022/05/09 13:09:24;;;;;;;;;14.00;12.33;;;;;25.22;41.50;101957.06;5073159;28;47783;-81
2022/05/09 13:11:57;;;;;;;;;13.00;12.67;;;;;25.22;41.65;101962.50;5069051;28;45433;-82
2022/05/09 13:14:29;;;;;;;;;16.00;13.00;;;;;25.22;41.72;101954.34;5073732;27;45408;-80
2022/05/09 13:16:59;;;;;;;;;12.67;10.67;;;;;25.23;41.54;101956.94;5088148;27;45915;-81
2022/05/09 13:19:25;;;;;;;;;12.00;12.00;;;;;25.24;41.86;101955.91;5073009;27;45832;-81
2022/05/09 13:21:51;;;;;;;;;13.67;12.33;;;;;25.27;41.69;101952.88;5071785;27;46302;-80
2022/05/09 13:24:28;;;;;;;;;11.33;11.33;;;;;25.29;41.41;101949.16;5074880;27;46341;-81
2022/05/09 13:27:01;;;;;;;;;11.67;11.67;;;;;25.31;41.11;101947.16;5073690;27;45325;-80
2022/05/09 13:29:33;;;;;;;;;11.67;10.00;;;;;25.33;41.37;101945.13;5068462;27;45336;-81
2022/05/09 13:31:59;;;;;;;;;13.67;11.67;;;;;25.34;41.16;101942.25;5067795;28;46891;-80
2022/05/09 13:34:31;;;;;;;;;12.33;12.33;;;;;25.36;41.58;101934.81;5072234;27;45573;-81
2022/05/09 13:36:57;;;;;;;;;12.00;12.00;;;;;25.38;41.49;101937.41;5064906;27;46037;-82
2022/05/09 13:39:28;;;;;;;;;12.00;11.00;;;;;25.35;41.39;101933.13;5064617;28;45524;-89
2022/05/09 13:41:56;;;;;;;;;13.00;13.00;;;;;25.33;41.66;101928.81;5065113;27;45509;-87
2022/05/09 13:44:24;;;;;;;;;13.00;13.00;;;;;25.32;41.60;101935.25;5063055;28;46972;-84
2022/05/09 13:46:51;;;;;;;;;14.00;13.00;;;;;25.31;41.24;101928.13;5066976;27;45517;-87
2022/05/09 13:49:19;;;;;;;;;13.00;12.67;;;;;25.29;41.50;101920.13;5070595;27;45942;-85
2022/05/09 13:52:04;;;;;;;;;13.00;13.00;;;;;25.31;41.18;101918.13;5080882;27;45666;-85
2022/05/09 13:54:33;;;;;;;;;12.00;11.00;;;;;25.31;41.26;101912.69;5069586;28;46086;-85
2022/05/09 13:57:16;;;;;;;;;12.00;12.00;;;;;25.32;41.20;101917.09;5075913;28;45788;-84
2022/05/09 13:59:45;;;;;;;;;14.00;11.33;;;;;25.32;41.60;101913.53;5072491;27;45532;-82
2022/05/09 14:02:13;;;;;;;;;16.00;11.67;;;;;25.32;41.62;101911.69;5067850;28;45508;-81
2022/05/09 14:04:42;;;;;;;;;12.33;12.33;;;;;25.34;41.48;101912.38;5070188;28;46072;-82
2022/05/09 14:09:53;;;;;;;;;15.33;13.33;;;;;25.37;41.38;101912.06;5071402;27;45717;-85
2022/05/09 14:12:21;;;;;;;;;12.00;12.00;;;;;25.36;41.47;101913.09;5070684;27;45429;-80
2022/05/09 14:14:58;;;;;;;;;15.00;14.00;;;;;25.37;41.87;101901.19;5080317;27;47212;-83
2022/05/09 14:17:31;;;;;;;;;16.33;15.00;;;;;25.38;41.70;101897.47;5068890;27;45642;-80
2022/05/09 14:19:59;;;;;;;;;15.67;13.67;;;;;25.43;41.80;101896.16;5067094;28;45464;-81
2022/05/09 14:22:28;;;;;;;;;14.00;12.67;;;;;25.46;42.09;101888.53;5071797;27;45545;-81
2022/05/09 14:30:35;;;;;;;;;15.00;11.67;;;;;25.58;42.31;101888.38;5060558;28;45616;-81
2022/05/09 14:33:01;;;;;;;;;12.67;12.00;;;;;25.61;42.15;101896.19;5071920;28;45895;-81
2022/05/09 14:35:47;;;;;;;;;9.00;9.00;;;;;25.60;41.61;101884.50;5077429;27;46601;-81
2022/05/09 14:38:32;;;;;;;;;13.33;13.33;;;;;25.60;41.05;101887.19;5070400;28;45505;-80
2022/05/09 14:41:36;;;;;;;;;10.67;10.67;;;;;25.59;41.61;101885.47;5066360;27;45759;-80
2022/05/09 14:44:15;;;;;;;;;9.33;7.67;;;;;25.61;41.42;101888.03;5070582;27;45574;-80
2022/05/09 14:46:51;;;;;;;;;14.00;12.00;;;;;25.62;41.92;101885.16;5069072;28;47167;-77
2022/05/09 14:49:18;;;;;;;;;11.33;10.67;;;;;25.66;41.80;101883.00;5067306;27;45527;-78
2022/05/09 14:52:04;;;;;;;;;13.33;10.67;;;;;25.68;42.16;101883.69;5070687;27;45739;-75
2022/05/09 14:54:40;;;;;;;;;12.00;12.00;;;;;25.72;41.90;101878.81;5081787;27;45426;-74
2022/05/09 14:57:28;;;;;;;;;9.33;9.00;;;;;25.76;41.98;101882.91;5073971;27;46033;-78
2022/05/09 15:00:06;;;;;;;;;10.67;10.67;;;;;25.80;41.52;101878.88;5066893;27;45588;-78
2022/05/09 15:02:33;;;;;;;;;13.00;10.00;;;;;25.83;41.94;101869.56;5067936;27;45734;-78
2022/05/09 15:05:01;;;;;;;;;12.33;12.00;;;;;25.85;42.18;101873.81;5058831;27;45676;-78
2022/05/09 15:07:26;;;;;;;;;10.67;10.67;;;;;25.88;41.97;101875.38;5086931;27;48763;-77
2022/05/09 15:09:52;;;;;;;;;9.00;8.67;;;;;25.90;42.30;101866.03;5083129;27;46120;-78
2022/05/09 15:12:28;;;;;;;;;8.00;8.00;;;;;25.91;41.90;101870.47;5070030;27;45397;-78
2022/05/09 15:14:54;;;;;;;;;12.00;11.00;;;;;25.93;41.95;101864.88;5071444;27;45234;-78
2022/05/09 15:17:19;;;;;;;;;9.67;9.67;;;;;25.95;42.30;101862.00;5066806;27;46121;-80
2022/05/09 15:19:45;;;;;;;;;11.00;11.00;;;;;25.96;42.15;101853.69;5061721;27;46401;-79
2022/05/09 15:22:14;;;;;;;;;12.33;11.33;;;;;25.99;41.96;101849.81;5072891;27;50119;-79
2022/05/09 15:24:40;;;;;;;;;10.00;10.00;;;;;25.99;41.86;101853.34;5072886;27;45520;-79
2022/05/09 15:27:06;;;;;;;;;9.67;8.00;;;;;25.99;42.19;101858.78;5067335;27;45769;-83
2022/05/09 15:29:31;;;;;;;;;13.33;9.00;;;;;25.95;42.27;101851.13;5069235;27;46012;-83
2022/05/09 15:31:57;;;;;;;;;13.33;11.00;;;;;25.96;42.21;101850.97;5072634;27;45790;-88
2022/05/09 15:34:22;;;;;;;;;10.00;9.67;;;;;25.99;42.42;101852.53;5065180;27;45600;-88
2022/05/09 15:36:47;;;;;;;;;13.00;11.33;;;;;26.00;42.46;101854.22;5065608;27;46126;-85
2022/05/09 15:39:13;;;;;;;;;10.00;10.00;;;;;26.02;42.63;101838.59;5061914;27;45466;-87
2022/05/09 16:57:08;;;;;;;;;12.25;12.25;;;;;21.73;49.48;101815.03;5117465;27;45788;-81
2022/05/09 16:59:43;;;;;;;;;11.50;10.00;;;;;21.83;49.00;101815.94;5109407;27;46043;-83
2022/05/09 17:02:09;;;;;;;;;13.00;12.25;;;;;22.02;47.98;101819.78;5110516;27;45464;-81
2022/05/09 17:04:35;;;;;;;;;12.00;12.00;;;;;22.25;47.51;101817.78;5102151;27;45586;-80
2022/05/09 17:07:00;;;;;;;;;12.00;12.00;;;;;22.51;47.27;101803.78;5109492;27;45420;-80
2022/05/09 17:09:25;;;;;;;;;12.50;12.50;;;;;22.77;46.12;101801.50;5107371;27;57435;-79
2022/05/09 17:11:51;;;;;;;;;11.00;11.00;;;;;23.05;45.50;101806.25;5110898;27;58420;-80
2022/05/09 17:14:16;;;;;;;;;17.25;13.00;;;;;23.28;45.47;101801.47;5104837;27;45652;-78
2022/05/09 17:16:43;;;;;;;;;11.33;11.33;;;;;23.51;45.29;101801.19;5104924;27;46397;-81
2022/05/09 17:19:08;;;;;;;;;11.67;10.33;;;;;23.73;44.84;101792.91;5108990;27;45337;-79
2022/05/09 17:21:34;;;;;;;;;13.00;13.00;;;;;23.92;44.71;101798.28;5126220;27;45479;-79
2022/05/09 17:24:01;;;;;;;;;11.75;11.50;;;;;24.09;44.63;101790.47;5109787;27;45551;-79
2022/05/09 17:26:27;;;;;;;;;12.00;12.00;;;;;24.23;44.51;101799.13;5108713;27;46136;-79
2022/05/09 17:28:53;;;;;;;;;12.33;11.00;;;;;24.33;43.68;101791.81;5103226;27;45531;-79
2022/05/09 17:31:20;;;;;;;;;14.33;14.33;;;;;24.46;43.67;101800.47;5110172;27;45459;-79
2022/05/09 17:33:46;;;;;;;;;13.00;11.00;;;;;24.56;43.11;101791.44;5108476;27;45457;-83
2022/05/09 17:38:55;;;;;;;;;12.00;12.00;;;;;24.77;42.79;101796.59;5109897;27;45550;-85
2022/05/09 17:41:27;;;;;;;;;13.00;13.00;;;;;24.84;42.72;101796.88;5109271;27;45489;-85
2022/05/09 17:43:56;;;;;;;;;11.33;11.33;;;;;24.88;42.62;101803.69;5109523;27;45434;-85
2022/05/09 17:46:34;;;;;;;;;13.67;12.00;;;;;24.90;42.51;101801.72;5109265;27;45592;-85
2022/05/09 17:49:00;;;;;;;;;12.33;12.33;;;;;24.92;42.63;101807.81;5108489;27;45401;-85
2022/05/09 17:51:29;;;;;;;;;12.00;12.00;;;;;24.92;42.28;101796.09;5123884;27;45618;-84
2022/05/09 17:53:55;;;;;;;;;12.33;11.67;;;;;24.93;41.99;101805.97;5099379;27;45340;-86
2022/05/09 17:56:22;;;;;;;;;13.00;12.00;;;;;24.94;42.14;101804.97;5100018;27;46056;-86
2022/05/09 17:58:48;;;;;;;;;13.33;11.67;;;;;24.95;41.99;101799.38;5133336;27;45485;-85
2022/05/09 18:01:17;;;;;;;;;13.33;13.33;;;;;24.96;41.80;101795.66;5109267;27;45395;-86
2022/05/09 18:03:43;;;;;;;;;13.00;13.00;;;;;24.96;41.75;101801.09;5100992;27;45445;-86
2022/05/09 18:06:08;;;;;;;;;15.67;12.00;;;;;24.97;41.91;101802.78;5109989;27;46032;-86
2022/05/09 18:08:34;;;;;;;;;12.33;11.00;;;;;24.96;41.76;101790.22;5084742;27;56069;-80
2022/05/09 18:11:01;;;;;;;;;14.00;11.33;;;;;24.98;41.57;101799.06;5089315;27;46091;-79
2022/05/09 18:13:26;;;;;;;;;15.33;14.33;;;;;25.01;41.62;101797.91;5094928;27;45600;-78
2022/05/09 18:15:55;;;;;;;;;13.00;11.33;;;;;25.02;41.67;101799.63;5094265;27;45445;-78
2022/05/09 18:18:27;;;;;;;;;13.67;13.33;;;;;25.04;41.50;101797.59;5086366;27;45502;-78
2022/05/09 18:20:54;;;;;;;;;14.33;14.33;;;;;25.05;41.85;101793.88;5095346;27;45785;-78
2022/05/09 18:23:20;;;;;;;;;14.00;14.00;;;;;25.06;41.65;101792.84;5091773;27;45414;-78
2022/05/09 18:25:46;;;;;;;;;13.00;12.00;;;;;25.07;41.48;101797.31;5092282;27;46115;-78
2022/05/09 18:28:15;;;;;;;;;17.67;13.67;;;;;25.06;41.77;101795.56;5092518;27;45540;-78
2022/05/09 18:30:43;;;;;;;;;13.33;13.33;;;;;25.06;41.38;101797.47;5086974;27;45621;-77
2022/05/09 18:33:15;;;;;;;;;14.00;12.67;;;;;25.06;41.79;101798.28;5086092;27;45701;-77
2022/05/09 18:35:44;;;;;;;;;17.67;13.00;;;;;25.05;42.03;101793.88;5090772;27;46059;-78
2022/05/09 18:38:30;;;;;;;;;12.67;12.33;;;;;25.07;41.85;101801.88;5089911;27;45430;-79
2022/05/09 18:41:11;;;;;;;;;11.67;11.67;;;;;25.07;41.65;101793.72;5087421;27;45437;-78
2022/05/09 18:43:37;;;;;;;;;15.00;13.00;;;;;25.07;41.88;101805.47;5094108;27;45753;-78
2022/05/09 18:46:03;;;;;;;;;12.33;12.33;;;;;25.08;41.95;101801.72;5092641;27;46269;-79
2022/05/09 18:48:29;;;;;;;;;15.00;13.33;;;;;25.07;41.78;101802.75;5087327;27;45479;-78
2022/05/09 18:53:39;;;;;;;;;12.33;12.33;;;;;25.07;42.13;101807.31;5091102;27;45417;-77
2022/05/09 18:56:04;;;;;;;;;12.00;12.00;;;;;25.05;41.92;101810.16;5091620;27;45506;-77
2022/05/09 18:58:30;;;;;;;;;13.00;13.00;;;;;25.07;42.43;101812.75;5104548;27;48345;-78
2022/05/09 19:00:56;;;;;;;;;13.00;13.00;;;;;25.08;42.52;101811.72;5095106;27;45622;-78
2022/05/09 19:03:21;;;;;;;;;12.67;11.00;;;;;25.09;42.04;101808.03;5086514;27;45585;-78
2022/05/09 19:05:49;;;;;;;;;14.33;14.00;;;;;25.11;42.18;101811.44;5093930;27;45366;-80
2022/05/09 19:08:30;;;;;;;;;13.67;13.67;;;;;25.14;42.48;101811.13;5089277;27;45419;-77
2022/05/09 19:10:59;;;;;;;;;14.00;14.00;;;;;25.18;42.33;101817.09;5087415;27;45463;-77
2022/05/09 19:13:26;;;;;;;;;12.00;12.00;;;;;25.19;42.17;101822.41;5093265;27;45463;-75
2022/05/09 19:15:54;;;;;;;;;13.33;13.33;;;;;25.23;42.20;101831.94;5093386;27;46146;-79
2022/05/09 19:18:22;;;;;;;;;10.33;10.33;;;;;25.27;42.24;101830.59;5093705;27;52033;-83
2022/05/09 19:20:49;;;;;;;;;12.67;12.33;;;;;25.31;42.51;101825.75;5091475;27;45430;-84
2022/05/09 19:23:16;;;;;;;;;12.00;12.00;;;;;25.34;42.58;101819.13;5091377;27;45626;-81
2022/05/09 19:25:44;;;;;;;;;14.00;11.00;;;;;25.37;42.33;101821.53;5094396;27;46235;-83
2022/05/09 19:28:10;;;;;;;;;15.67;14.67;;;;;25.39;42.50;101814.94;5087298;27;45502;-84
2022/05/09 19:30:36;;;;;;;;;10.67;10.67;;;;;25.42;42.57;101823.78;5093834;27;45495;-86
2022/05/09 19:33:02;;;;;;;;;12.33;11.00;;;;;25.42;42.40;101824.63;5084710;27;45422;-89
2022/05/09 19:35:29;;;;;;;;;13.33;13.00;;;;;25.44;42.25;101835.34;5087849;27;45578;-88
2022/05/09 19:37:55;;;;;;;;;12.33;11.00;;;;;25.44;42.29;101838.94;5091657;27;45656;-82
2022/05/09 19:40:23;;;;;;;;;13.00;13.00;;;;;25.47;42.70;101848.63;5089143;27;45748;-81
2022/05/09 19:42:56;;;;;;;;;10.67;10.33;;;;;25.49;42.75;101852.03;5093834;27;45722;-82
